SHT2B EGLL-EGCC
Flight info
| Callsign | SHT2B |
|---|---|
| Flight time | 0h 33m |
| Altitude | 16000 |
| Route | ULTIB T420 ELVOS |
| Aircraft | A320/M-SDE3FGHIKRWXY/S |
Departure
| Time | 2026-05-06 20:29 |
|---|---|
| Airport | London Heathrow Airport (EGLL) |
Arrival
| Time | 2026-05-06 21:03 |
|---|---|
| Airport | Manchester Airport (EGCC) |
| Time | Latitude | Longitude | Altitude | Speed | Heading |
|---|---|---|---|---|---|
| 2026-05-06 20:21 | 51.46921 | -0.48645 | 86 ft | 0 kts | 357° |
| 2026-05-06 20:22 | 51.46915 | -0.48644 | 90 ft | 3 kts | 3° |
| 2026-05-06 20:22 | 51.46898 | -0.48647 | 88 ft | 3 kts | 0° |
| 2026-05-06 20:23 | 51.46881 | -0.48650 | 89 ft | 3 kts | 57° |
| 2026-05-06 20:23 | 51.46877 | -0.48679 | 87 ft | 3 kts | 90° |
| 2026-05-06 20:23 | 51.46877 | -0.48702 | 88 ft | 0 kts | 90° |
| 2026-05-06 20:25 | 51.46877 | -0.48694 | 89 ft | 2 kts | 90° |
| 2026-05-06 20:26 | 51.46877 | -0.48656 | 86 ft | 5 kts | 90° |
| 2026-05-06 20:26 | 51.46877 | -0.48586 | 86 ft | 8 kts | 90° |
| 2026-05-06 20:26 | 51.46858 | -0.48491 | 88 ft | 11 kts | 135° |
| 2026-05-06 20:26 | 51.46781 | -0.48468 | 86 ft | 12 kts | 177° |
| 2026-05-06 20:27 | 51.46698 | -0.48464 | 90 ft | 6 kts | 179° |
| 2026-05-06 20:27 | 51.46647 | -0.48463 | 89 ft | 9 kts | 179° |
| 2026-05-06 20:27 | 51.46627 | -0.48463 | 90 ft | 0 kts | 179° |
| 2026-05-06 20:27 | 51.46624 | -0.48463 | 90 ft | 2 kts | 179° |
| 2026-05-06 20:28 | 51.46603 | -0.48462 | 89 ft | 4 kts | 179° |
| 2026-05-06 20:28 | 51.46564 | -0.48463 | 86 ft | 7 kts | 181° |
| 2026-05-06 20:28 | 51.46510 | -0.48455 | 88 ft | 9 kts | 160° |
| 2026-05-06 20:28 | 51.46479 | -0.48363 | 87 ft | 11 kts | 95° |
| 2026-05-06 20:29 | 51.46482 | -0.47955 | 87 ft | 72 kts | 89° |
| 2026-05-06 20:29 | 51.46489 | -0.46810 | 89 ft | 130 kts | 89° |
| 2026-05-06 20:29 | 51.46504 | -0.45154 | 303 ft | 154 kts | 86° |
| 2026-05-06 20:29 | 51.46510 | -0.43434 | 959 ft | 154 kts | 86° |
| 2026-05-06 20:30 | 51.46588 | -0.41703 | 1475 ft | 161 kts | 72° |
| 2026-05-06 20:30 | 51.48019 | -0.38371 | 2054 ft | 205 kts | 48° |
| 2026-05-06 20:30 | 51.48979 | -0.36542 | 2489 ft | 229 kts | 49° |
| 2026-05-06 20:31 | 51.50061 | -0.34468 | 3097 ft | 246 kts | 49° |
| 2026-05-06 20:31 | 51.51174 | -0.32325 | 3982 ft | 253 kts | 49° |
| 2026-05-06 20:31 | 51.52251 | -0.30015 | 4907 ft | 260 kts | 60° |
| 2026-05-06 20:31 | 51.52900 | -0.27221 | 5687 ft | 270 kts | 70° |
| 2026-05-06 20:32 | 51.53794 | -0.24562 | 5942 ft | 268 kts | 46° |
| 2026-05-06 20:32 | 51.55291 | -0.22820 | 6003 ft | 264 kts | 20° |
| 2026-05-06 20:32 | 51.57084 | -0.22356 | 6007 ft | 263 kts | 354° |
| 2026-05-06 20:32 | 51.58853 | -0.23098 | 6033 ft | 263 kts | 342° |
| 2026-05-06 20:33 | 51.60632 | -0.23805 | 6035 ft | 263 kts | 347° |
| 2026-05-06 20:33 | 51.62380 | -0.24675 | 6034 ft | 264 kts | 335° |
| 2026-05-06 20:33 | 51.64015 | -0.26030 | 6035 ft | 265 kts | 331° |
| 2026-05-06 20:33 | 51.65620 | -0.27492 | 6036 ft | 265 kts | 330° |
| 2026-05-06 20:34 | 51.67207 | -0.29001 | 6035 ft | 264 kts | 329° |
| 2026-05-06 20:34 | 51.68810 | -0.30552 | 6145 ft | 268 kts | 329° |
| 2026-05-06 20:34 | 51.70382 | -0.32082 | 7076 ft | 267 kts | 329° |
| 2026-05-06 20:34 | 51.71999 | -0.33653 | 8013 ft | 269 kts | 329° |
| 2026-05-06 20:35 | 51.73618 | -0.35224 | 8891 ft | 273 kts | 329° |
| 2026-05-06 20:35 | 51.75261 | -0.36811 | 9747 ft | 278 kts | 329° |
| 2026-05-06 20:35 | 51.76950 | -0.38438 | 10293 ft | 292 kts | 329° |
| 2026-05-06 20:35 | 51.78768 | -0.40192 | 10506 ft | 315 kts | 329° |
| 2026-05-06 20:36 | 51.80695 | -0.42057 | 10972 ft | 327 kts | 329° |
| 2026-05-06 20:36 | 51.82663 | -0.43961 | 11665 ft | 332 kts | 328° |
| 2026-05-06 20:36 | 51.84651 | -0.45883 | 11949 ft | 334 kts | 328° |
| 2026-05-06 20:36 | 51.86652 | -0.47824 | 12294 ft | 337 kts | 328° |
| 2026-05-06 20:37 | 51.88668 | -0.49789 | 13065 ft | 339 kts | 328° |
| 2026-05-06 20:37 | 51.90721 | -0.51796 | 13827 ft | 342 kts | 328° |
| 2026-05-06 20:37 | 51.92751 | -0.53782 | 14470 ft | 346 kts | 328° |
| 2026-05-06 20:37 | 51.94838 | -0.55819 | 15117 ft | 349 kts | 328° |
| 2026-05-06 20:38 | 51.96934 | -0.57860 | 15727 ft | 353 kts | 328° |
| 2026-05-06 20:38 | 51.99046 | -0.59923 | 15959 ft | 355 kts | 328° |
| 2026-05-06 20:38 | 52.01163 | -0.61997 | 16029 ft | 355 kts | 328° |
| 2026-05-06 20:38 | 52.03279 | -0.64071 | 16030 ft | 355 kts | 328° |
| 2026-05-06 20:39 | 52.05394 | -0.66144 | 16032 ft | 355 kts | 328° |
| 2026-05-06 20:39 | 52.07503 | -0.68216 | 16028 ft | 354 kts | 328° |
| 2026-05-06 20:39 | 52.09612 | -0.70292 | 16029 ft | 354 kts | 328° |
| 2026-05-06 20:39 | 52.11721 | -0.72370 | 16028 ft | 355 kts | 328° |
| 2026-05-06 20:40 | 52.13834 | -0.74451 | 16034 ft | 355 kts | 328° |
| 2026-05-06 20:40 | 52.15949 | -0.76535 | 16031 ft | 354 kts | 328° |
| 2026-05-06 20:40 | 52.18059 | -0.78615 | 16031 ft | 354 kts | 328° |
| 2026-05-06 20:40 | 52.20167 | -0.80696 | 16039 ft | 354 kts | 328° |
| 2026-05-06 20:41 | 52.22276 | -0.82781 | 16037 ft | 354 kts | 328° |
| 2026-05-06 20:41 | 52.24385 | -0.84868 | 16037 ft | 355 kts | 328° |
| 2026-05-06 20:41 | 52.26496 | -0.86960 | 16042 ft | 355 kts | 328° |
| 2026-05-06 20:41 | 52.28604 | -0.89054 | 16046 ft | 355 kts | 328° |
| 2026-05-06 20:42 | 52.30710 | -0.91148 | 16037 ft | 354 kts | 328° |
| 2026-05-06 20:42 | 52.32810 | -0.93240 | 16037 ft | 353 kts | 328° |
| 2026-05-06 20:42 | 52.34910 | -0.95338 | 16043 ft | 354 kts | 328° |
| 2026-05-06 20:42 | 52.37011 | -0.97437 | 16042 ft | 354 kts | 328° |
| 2026-05-06 20:43 | 52.39115 | -0.99534 | 16047 ft | 354 kts | 328° |
| 2026-05-06 20:43 | 52.41220 | -1.01636 | 16048 ft | 355 kts | 328° |
| 2026-05-06 20:43 | 52.43325 | -1.03747 | 16035 ft | 355 kts | 328° |
| 2026-05-06 20:43 | 52.45431 | -1.05861 | 16032 ft | 355 kts | 328° |
| 2026-05-06 20:44 | 52.47536 | -1.07978 | 16029 ft | 355 kts | 328° |
| 2026-05-06 20:44 | 52.48959 | -1.09411 | 16027 ft | 355 kts | 327° |
| 2026-05-06 20:44 | 52.51064 | -1.11532 | 16023 ft | 355 kts | 327° |
| 2026-05-06 20:44 | 52.53169 | -1.13651 | 16020 ft | 355 kts | 327° |
| 2026-05-06 20:45 | 52.55275 | -1.15768 | 16016 ft | 355 kts | 327° |
| 2026-05-06 20:45 | 52.57375 | -1.17881 | 16012 ft | 355 kts | 327° |
| 2026-05-06 20:45 | 52.59479 | -1.20001 | 16008 ft | 355 kts | 327° |
| 2026-05-06 20:45 | 52.61583 | -1.22124 | 16005 ft | 355 kts | 327° |
| 2026-05-06 20:46 | 52.63713 | -1.24276 | 15911 ft | 351 kts | 327° |
| 2026-05-06 20:46 | 52.65765 | -1.26352 | 15569 ft | 343 kts | 327° |
| 2026-05-06 20:46 | 52.67788 | -1.28402 | 15257 ft | 339 kts | 327° |
| 2026-05-06 20:46 | 52.69791 | -1.30433 | 14968 ft | 337 kts | 327° |
| 2026-05-06 20:47 | 52.71788 | -1.32461 | 14674 ft | 335 kts | 327° |
| 2026-05-06 20:47 | 52.73765 | -1.34473 | 14430 ft | 334 kts | 327° |
| 2026-05-06 20:47 | 52.75741 | -1.36491 | 14146 ft | 332 kts | 327° |
| 2026-05-06 20:47 | 52.77697 | -1.38491 | 13855 ft | 331 kts | 327° |
| 2026-05-06 20:48 | 52.79674 | -1.40515 | 13526 ft | 329 kts | 327° |
| 2026-05-06 20:48 | 52.81590 | -1.42479 | 13248 ft | 328 kts | 327° |
| 2026-05-06 20:48 | 52.83552 | -1.44489 | 12978 ft | 327 kts | 327° |
| 2026-05-06 20:48 | 52.85484 | -1.46464 | 12710 ft | 326 kts | 327° |
| 2026-05-06 20:49 | 52.87405 | -1.48428 | 12451 ft | 325 kts | 327° |
| 2026-05-06 20:49 | 52.89322 | -1.50394 | 12191 ft | 323 kts | 327° |
| 2026-05-06 20:49 | 52.91236 | -1.52358 | 11929 ft | 322 kts | 327° |
| 2026-05-06 20:49 | 52.93164 | -1.54336 | 11669 ft | 321 kts | 327° |
| 2026-05-06 20:50 | 52.95034 | -1.56257 | 11427 ft | 320 kts | 327° |
| 2026-05-06 20:50 | 52.96943 | -1.58225 | 11169 ft | 319 kts | 327° |
| 2026-05-06 20:50 | 52.98829 | -1.60174 | 10917 ft | 318 kts | 327° |
| 2026-05-06 20:50 | 53.00704 | -1.62114 | 10670 ft | 317 kts | 327° |
| 2026-05-06 20:51 | 53.02567 | -1.64045 | 10424 ft | 316 kts | 327° |
| 2026-05-06 20:51 | 53.04422 | -1.65988 | 10180 ft | 313 kts | 324° |
| 2026-05-06 20:51 | 53.06075 | -1.68309 | 9934 ft | 308 kts | 313° |
| 2026-05-06 20:51 | 53.07453 | -1.70943 | 9662 ft | 293 kts | 310° |
| 2026-05-06 20:52 | 53.08737 | -1.73442 | 9395 ft | 278 kts | 310° |
| 2026-05-06 20:52 | 53.09989 | -1.75872 | 9131 ft | 277 kts | 310° |
| 2026-05-06 20:52 | 53.11237 | -1.78294 | 8861 ft | 274 kts | 310° |
| 2026-05-06 20:52 | 53.12490 | -1.80725 | 8599 ft | 272 kts | 310° |
| 2026-05-06 20:53 | 53.13718 | -1.83108 | 8333 ft | 271 kts | 311° |
| 2026-05-06 20:53 | 53.14910 | -1.85522 | 8110 ft | 269 kts | 303° |
| 2026-05-06 20:53 | 53.15569 | -1.88409 | 8063 ft | 269 kts | 283° |
| 2026-05-06 20:53 | 53.15907 | -1.91489 | 8057 ft | 271 kts | 281° |
| 2026-05-06 20:54 | 53.16217 | -1.94595 | 8063 ft | 272 kts | 281° |
| 2026-05-06 20:54 | 53.16522 | -1.97701 | 8058 ft | 272 kts | 280° |
| 2026-05-06 20:54 | 53.16827 | -2.00816 | 7892 ft | 274 kts | 280° |
| 2026-05-06 20:54 | 53.17124 | -2.03898 | 7529 ft | 263 kts | 281° |
| 2026-05-06 20:55 | 53.17409 | -2.06856 | 7177 ft | 255 kts | 280° |
| 2026-05-06 20:55 | 53.17702 | -2.09737 | 6826 ft | 251 kts | 280° |
| 2026-05-06 20:55 | 53.17992 | -2.12585 | 6479 ft | 246 kts | 280° |
| 2026-05-06 20:55 | 53.18272 | -2.15341 | 6123 ft | 237 kts | 280° |
| 2026-05-06 20:56 | 53.18547 | -2.18036 | 6046 ft | 235 kts | 280° |
| 2026-05-06 20:56 | 53.18822 | -2.20740 | 5967 ft | 239 kts | 280° |
| 2026-05-06 20:56 | 53.19100 | -2.23463 | 5586 ft | 234 kts | 280° |
| 2026-05-06 20:56 | 53.19372 | -2.26096 | 5225 ft | 227 kts | 280° |
| 2026-05-06 20:57 | 53.19646 | -2.28676 | 4825 ft | 226 kts | 280° |
| 2026-05-06 20:57 | 53.19927 | -2.31260 | 4417 ft | 227 kts | 280° |
| 2026-05-06 20:57 | 53.20218 | -2.33847 | 3968 ft | 227 kts | 280° |
| 2026-05-06 20:57 | 53.20525 | -2.36435 | 3517 ft | 229 kts | 280° |
| 2026-05-06 20:58 | 53.20854 | -2.39123 | 3061 ft | 232 kts | 280° |
| 2026-05-06 20:58 | 53.21187 | -2.41746 | 3007 ft | 233 kts | 281° |
| 2026-05-06 20:58 | 53.21514 | -2.44402 | 3012 ft | 234 kts | 280° |
| 2026-05-06 20:58 | 53.21837 | -2.47054 | 3004 ft | 233 kts | 280° |
| 2026-05-06 20:59 | 53.22365 | -2.49602 | 2993 ft | 234 kts | 304° |
| 2026-05-06 20:59 | 53.23723 | -2.51224 | 2988 ft | 219 kts | 351° |
| 2026-05-06 20:59 | 53.25024 | -2.50936 | 3030 ft | 195 kts | 35° |
| 2026-05-06 20:59 | 53.25814 | -2.49225 | 2893 ft | 186 kts | 80° |
| 2026-05-06 21:00 | 53.25942 | -2.47080 | 2630 ft | 180 kts | 82° |
| 2026-05-06 21:00 | 53.26493 | -2.45199 | 2400 ft | 180 kts | 60° |
| 2026-05-06 21:00 | 53.27220 | -2.43482 | 2161 ft | 180 kts | 57° |
| 2026-05-06 21:00 | 53.27984 | -2.41840 | 1913 ft | 178 kts | 56° |
| 2026-05-06 21:01 | 53.28748 | -2.40248 | 1689 ft | 167 kts | 56° |
| 2026-05-06 21:01 | 53.29427 | -2.38853 | 1452 ft | 144 kts | 55° |
| 2026-05-06 21:01 | 53.30033 | -2.37602 | 1257 ft | 135 kts | 56° |
| 2026-05-06 21:01 | 53.30610 | -2.36386 | 1040 ft | 132 kts | 57° |
| 2026-05-06 21:02 | 53.31171 | -2.35189 | 818 ft | 132 kts | 54° |
| 2026-05-06 21:02 | 53.31749 | -2.33985 | 691 ft | 134 kts | 51° |
| 2026-05-06 21:02 | 53.32349 | -2.32774 | 527 ft | 135 kts | 50° |
| 2026-05-06 21:02 | 53.32944 | -2.31564 | 372 ft | 135 kts | 52° |
| 2026-05-06 21:03 | 53.33541 | -2.30356 | 243 ft | 132 kts | 53° |
| 2026-05-06 21:03 | 53.34006 | -2.29379 | 230 ft | 72 kts | 51° |
| 2026-05-06 21:03 | 53.34254 | -2.28879 | 227 ft | 44 kts | 50° |
| 2026-05-06 21:03 | 53.34453 | -2.28585 | 227 ft | 30 kts | 28° |
| 2026-05-06 21:04 | 53.34628 | -2.28465 | 231 ft | 24 kts | 22° |
| 2026-05-06 21:04 | 53.34742 | -2.28335 | 230 ft | 17 kts | 43° |
| 2026-05-06 21:04 | 53.34822 | -2.28178 | 231 ft | 19 kts | 53° |
| 2026-05-06 21:04 | 53.34894 | -2.28019 | 229 ft | 11 kts | 51° |
| 2026-05-06 21:05 | 53.34946 | -2.27977 | 230 ft | 5 kts | 354° |
| 2026-05-06 21:05 | 53.34947 | -2.27977 | 230 ft | 0 kts | 353° |
| 2026-05-06 21:05 | 53.34951 | -2.27979 | 230 ft | 1 kts | 349° |
| 2026-05-06 21:06 | 53.34962 | -2.27986 | 232 ft | 2 kts | 338° |
| 2026-05-06 21:06 | 53.34980 | -2.28002 | 231 ft | 6 kts | 329° |
| 2026-05-06 21:06 | 53.35015 | -2.28045 | 233 ft | 6 kts | 322° |
| 2026-05-06 21:06 | 53.35059 | -2.28102 | 234 ft | 11 kts | 322° |
| 2026-05-06 21:07 | 53.35140 | -2.28190 | 233 ft | 17 kts | 339° |
| 2026-05-06 21:07 | 53.35242 | -2.28193 | 231 ft | 14 kts | 5° |
| 2026-05-06 21:07 | 53.35338 | -2.28177 | 234 ft | 14 kts | 5° |
| 2026-05-06 21:07 | 53.35443 | -2.28155 | 235 ft | 17 kts | 13° |
| 2026-05-06 21:08 | 53.35547 | -2.28051 | 235 ft | 17 kts | 47° |
| 2026-05-06 21:08 | 53.35628 | -2.27915 | 241 ft | 16 kts | 32° |
| 2026-05-06 21:08 | 53.35736 | -2.27874 | 247 ft | 15 kts | 7° |
| 2026-05-06 21:08 | 53.35836 | -2.27857 | 252 ft | 14 kts | 5° |
| 2026-05-06 21:09 | 53.35914 | -2.27852 | 255 ft | 11 kts | 353° |
| 2026-05-06 21:09 | 53.35991 | -2.27893 | 255 ft | 10 kts | 348° |
| 2026-05-06 21:09 | 53.36061 | -2.27886 | 255 ft | 12 kts | 358° |
| 2026-05-06 21:09 | 53.36141 | -2.27958 | 255 ft | 15 kts | 320° |
| 2026-05-06 21:10 | 53.36223 | -2.28084 | 255 ft | 16 kts | 315° |
| 2026-05-06 21:10 | 53.36307 | -2.28222 | 255 ft | 17 kts | 316° |
| 2026-05-06 21:10 | 53.36374 | -2.28338 | 255 ft | 14 kts | 307° |
| 2026-05-06 21:10 | 53.36428 | -2.28497 | 255 ft | 17 kts | 304° |
| 2026-05-06 21:11 | 53.36515 | -2.28651 | 255 ft | 18 kts | 314° |
| 2026-05-06 21:11 | 53.36590 | -2.28811 | 255 ft | 16 kts | 308° |
| 2026-05-06 21:11 | 53.36670 | -2.28961 | 255 ft | 14 kts | 313° |
| 2026-05-06 21:11 | 53.36722 | -2.29046 | 255 ft | 9 kts | 321° |
| 2026-05-06 21:12 | 53.36749 | -2.29067 | 255 ft | 5 kts | 346° |
| 2026-05-06 21:12 | 53.36791 | -2.29057 | 255 ft | 8 kts | 20° |
| 2026-05-06 21:12 | 53.36841 | -2.28993 | 255 ft | 10 kts | 43° |
| 2026-05-06 21:12 | 53.36850 | -2.28914 | 255 ft | 5 kts | 123° |
| 2026-05-06 21:13 | 53.36836 | -2.28886 | 255 ft | 0 kts | 131° |